KART/ART METAR and TAF weather

Enter ICAO airport designator
Station Type Date Time Source
KART METAR 2023/02/04 01:56 UTC NOAA

KART 040156Z AUTO 32013KT 10SM BKN042 OVC050 M24/M32 A3048 RMK AO2 SLP338 T12391322 $


Station Type Date Time Source
KART Decoded METAR 2023/02/04 01:56 UTC NOAA

WATERTOWN INTERNATIONAL AIRPORT, NY, United States (KART) 43-59N 076-02W 100M
Feb 03, 2023 - 08:56 PM EST / 2023.02.04 0156 UTC
Wind: from the NW (320 degrees) at 15 MPH (13 KT):0
Visibility: 10 mile(s):0
Sky conditions: overcast
Temperature: -11.0 F (-23.9 C)
Windchill: -32 F (-36 C):2
Dew Point: -26.0 F (-32.2 C)
Relative Humidity: 46%
Pressure (altimeter): 30.48 in. Hg (1032 hPa)
ob: KART 040156Z AUTO 32013KT 10SM BKN042 OVC050 M24/M32 A3048 RMK AO2 SLP338 T12391322
cycle: 2

Station Type Date Time Source
KART TAF 2023/02/03 21:06 UTC NOAA

TAF
AMD KART 032105Z 0321/0418 32012KT P6SM BKN035 OVC045
FM040200 31009KT P6SM SCT050
FM040800 32003KT P6SM SKC
FM041600 17005KT P6SM SCT250

Example: see airport list